Time;durP1;ratioP1;P1;durP2;ratioP2;P2;SDS_P1;SDS_P2;PMS_P1;PMS_P2;Temp;Humidity;BMP_temperature;BMP_pressure;BME280_temperature;BME280_humidity;BME280_pressure;Samples;Min_cycle;Max_cycle;Signal;HPM_P1;HPM_P2
2022/06/05 00:00:16;;;;;;;;;;;;;;;24.41;72.85;99738.91;2029439;29;20127;-58
2022/06/05 00:01:29;;;;;;;;;;;;;;;24.40;72.46;99749.19;2029353;29;19922;-58
2022/06/05 00:02:29;;;;;;;;;;;;;;;24.42;72.73;99750.75;2028638;29;20265;-58
2022/06/05 00:03:48;;;;;;;;;;;;;;;24.43;72.63;99764.13;2029487;29;19915;-58
2022/06/05 00:04:51;;;;;;;;;;;;;;;24.44;72.76;99753.81;2021632;29;19911;-58
2022/06/05 00:06:01;;;;;;;;;;;;;;;24.44;72.54;99749.06;2021259;29;19911;-57
2022/06/05 00:07:05;;;;;;;;;;;;;;;24.44;72.57;99749.06;2029893;29;19906;-58
2022/06/05 00:08:09;;;;;;;;;;;;;;;24.44;72.56;99748.28;2028568;29;19922;-58
2022/06/05 00:09:15;;;;;;;;;;;;;;;24.44;72.76;99739.97;2027729;29;20368;-58
2022/06/05 00:10:18;;;;;;;;;;;;;;;24.44;72.64;99745.50;2029995;29;20173;-58
2022/06/05 00:11:21;;;;;;;;;;;;;;;24.44;72.70;99745.50;2030668;29;19911;-58
2022/06/05 00:12:32;;;;;;;;;;;;;;;24.44;72.81;99742.75;2030381;29;19981;-58
2022/06/05 00:13:33;;;;;;;;;;;;;;;24.43;72.79;99746.75;2029424;29;20411;-58
2022/06/05 00:14:37;;;;;;;;;;;;;;;24.42;72.60;99750.75;2023881;29;19915;-58
2022/06/05 00:15:37;;;;;;;;;;;;;;;24.39;72.71;99744.88;2025540;29;19914;-58
2022/06/05 00:16:38;;;;;;;;;;;;;;;24.40;72.82;99740.91;2028744;29;20364;-58
2022/06/05 00:17:39;;;;;;;;;;;;;;;24.39;72.68;99741.34;2028888;29;19929;-58
2022/06/05 00:18:42;;;;;;;;;;;;;;;24.39;72.69;99741.34;2031783;29;19962;-58
2022/06/05 00:19:44;;;;;;;;;;;;;;;24.38;72.67;99742.56;2033353;29;19917;-57
2022/06/05 00:20:45;;;;;;;;;;;;;;;24.37;72.90;99755.63;2031438;29;20330;-58
2022/06/05 00:21:45;;;;;;;;;;;;;;;24.37;72.94;99749.34;2035888;28;19917;-58
2022/06/05 00:22:46;;;;;;;;;;;;;;;24.35;72.92;99752.56;2022833;29;19926;-58
2022/06/05 00:23:47;;;;;;;;;;;;;;;24.33;72.84;99743.94;2019396;29;20005;-58
2022/06/05 00:24:47;;;;;;;;;;;;;;;24.34;72.78;99744.72;2026178;29;19927;-57
2022/06/05 00:26:07;;;;;;;;;;;;;;;24.33;73.08;99746.72;2022189;29;20444;-57
2022/06/05 00:27:14;;;;;;;;;;;;;;;24.33;73.01;99738.41;2005998;29;19911;-58
2022/06/05 00:28:26;;;;;;;;;;;;;;;24.30;73.14;99739.34;2035761;29;20224;-57
2022/06/05 00:29:33;;;;;;;;;;;;;;;24.31;73.05;99742.88;2027895;29;19915;-58
2022/06/05 00:30:39;;;;;;;;;;;;;;;24.31;73.20;99735.34;2034805;29;19921;-58
2022/06/05 00:31:58;;;;;;;;;;;;;;;24.31;72.89;99737.34;2029480;29;19970;-57
2022/06/05 00:32:58;;;;;;;;;;;;;;;24.33;72.91;99738.41;2028499;29;19907;-57
2022/06/05 00:33:59;;;;;;;;;;;;;;;24.32;72.86;99734.09;2031882;29;20313;-57
2022/06/05 00:34:59;;;;;;;;;;;;;;;24.32;72.94;99728.56;2032178;29;19920;-57
2022/06/05 00:36:20;;;;;;;;;;;;;;;24.31;73.10;99731.81;2031643;29;19907;-58
2022/06/05 00:37:23;;;;;;;;;;;;;;;24.31;72.80;99734.56;2009704;29;19907;-58
2022/06/05 00:38:36;;;;;;;;;;;;;;;24.28;72.83;99735.47;2029341;29;20013;-58
2022/06/05 00:39:36;;;;;;;;;;;;;;;24.28;72.84;99735.47;2023999;29;19991;-58
2022/06/05 00:40:51;;;;;;;;;;;;;;;24.28;72.85;99727.16;2030511;29;20402;-58
2022/06/05 00:42:09;;;;;;;;;;;;;;;24.27;73.15;99728.41;2033207;29;20204;-58
2022/06/05 00:43:12;;;;;;;;;;;;;;;24.27;72.92;99731.19;2027061;29;19915;-57
2022/06/05 00:44:15;;;;;;;;;;;;;;;24.27;72.93;99734.69;2032815;29;19914;-58
2022/06/05 00:45:16;;;;;;;;;;;;;;;24.26;73.16;99737.94;2033945;29;20426;-58
2022/06/05 00:46:16;;;;;;;;;;;;;;;24.27;73.01;99736.72;2032707;29;20286;-58
2022/06/05 00:47:21;;;;;;;;;;;;;;;24.27;73.11;99733.97;2033063;29;19926;-59
2022/06/05 00:48:21;;;;;;;;;;;;;;;24.27;73.00;99734.69;2033399;29;20240;-58
2022/06/05 00:49:23;;;;;;;;;;;;;;;24.28;72.65;99725.19;2031657;29;20340;-58
2022/06/05 00:50:25;;;;;;;;;;;;;;;24.28;72.81;99724.41;2024438;29;20337;-58
2022/06/05 00:51:25;;;;;;;;;;;;;;;24.27;72.81;99728.41;2017115;29;19915;-58
2022/06/05 00:52:27;;;;;;;;;;;;;;;24.26;72.90;99722.13;2032834;29;19987;-57
2022/06/05 00:53:27;;;;;;;;;;;;;;;24.26;72.84;99724.09;2029079;28;19922;-59
2022/06/05 00:54:27;;;;;;;;;;;;;;;24.25;72.85;99725.31;2031437;29;20342;-58
2022/06/05 00:55:30;;;;;;;;;;;;;;;24.25;73.02;99720.56;2031419;29;20124;-57
2022/06/05 00:56:31;;;;;;;14.60;10.18;;;;;;;24.25;72.72;99720.56;2032219;29;20220;-58
2022/06/05 00:57:33;;;;;;;;;;;;;;;24.26;72.88;99726.88;2028083;29;20358;-58
2022/06/05 00:58:33;;;;;;;;;;;;;;;24.27;72.86;99726.41;2029316;28;19923;-57
2022/06/05 00:59:34;;;;;;;;;;;;;;;24.27;72.46;99723.63;2029307;29;19918;-58
2022/06/05 01:00:41;;;;;;;;;;;;;;;24.27;72.73;99729.16;2029408;29;20356;-57
2022/06/05 01:01:42;;;;;;;;;;;;;;;24.27;72.81;99723.63;2029107;29;19943;-58
2022/06/05 01:02:44;;;;;;;;;;;;;;;24.25;72.68;99726.09;2028645;29;20348;-57
2022/06/05 01:03:44;;;;;;;;;;;;;;;24.25;72.59;99714.25;2028968;29;19914;-58
2022/06/05 01:04:48;;;;;;;;;;;;;;;24.25;72.67;99731.63;2031248;29;19914;-57
2022/06/05 01:05:48;;;;;;;;;;;;;;;24.26;72.82;99732.41;2027555;29;19910;-58
2022/06/05 01:06:48;;;;;;;;;;;;;;;24.25;72.67;99737.16;2025250;29;20309;-57
2022/06/05 01:07:49;;;;;;;;;;;;;;;24.25;72.70;99728.09;2030399;29;20468;-57
2022/06/05 01:08:49;;;;;;;;;;;;;;;24.25;72.69;99726.09;2028733;29;19913;-57
2022/06/05 01:09:51;;;;;;;;;;;;;;;24.24;72.64;99724.56;2035118;29;20312;-58
2022/06/05 01:10:54;;;;;;;;;;;;;;;24.25;72.78;99737.16;2028662;29;19918;-58
2022/06/05 01:12:05;;;;;;;;;;;;;;;24.25;72.62;99733.63;2029731;29;20230;-57
2022/06/05 01:13:24;;;;;;;;;;;;;;;24.23;72.64;99730.53;2021893;29;19919;-58
2022/06/05 01:14:48;;;;;;;;;;;;;;;24.23;72.78;99734.09;2014666;29;19915;-57
2022/06/05 01:15:48;;;;;;;;;;;;;;;24.22;72.70;99740.84;1989478;29;19912;-57
2022/06/05 01:17:11;;;;;;;;;;;;;;;24.23;72.77;99739.63;2022164;29;20674;-57
2022/06/05 01:18:16;;;;;;;;;;;;;;;24.25;72.79;99747.47;2027288;29;20039;-57
2022/06/05 01:19:38;;;;;;;12.40;8.50;;;;;;;24.23;72.61;99753.44;2024081;29;20309;-57
2022/06/05 01:20:38;;;;;;;;;;;;;;;24.24;72.61;99751.47;2024031;29;19915;-57
2022/06/05 01:21:44;;;;;;;;;;;;;;;24.25;72.45;99745.47;2021330;29;20283;-57
2022/06/05 01:22:48;;;;;;;;;;;;;;;24.24;72.54;99757.00;2023496;29;20602;-57
2022/06/05 01:24:07;;;;;;;;;;;;;;;24.23;72.70;99767.28;2027981;29;20009;-57
2022/06/05 01:25:10;;;;;;;;;;;;;;;24.23;72.48;99766.50;2020552;29;20052;-57
2022/06/05 01:26:26;;;;;;;;;;;;;;;24.22;72.44;99754.66;2030751;29;20523;-57
2022/06/05 01:27:28;;;;;;;;;;;;;;;24.22;72.49;99765.75;2024224;29;19921;-58
2022/06/05 01:28:31;;;;;;;;;;;;;;;24.24;72.43;99765.28;2011648;29;20023;-58
2022/06/05 01:29:37;;;;;;;;;;;;;;;24.23;72.31;99766.50;2023426;29;19915;-57
2022/06/05 01:30:45;;;;;;;;;;;;;;;24.23;72.46;99758.22;2029030;29;20210;-57
2022/06/05 01:31:48;;;;;;;;;;;;;;;24.22;72.52;99757.44;2027058;29;19922;-57
2022/06/05 01:32:49;;;;;;;;;;;;;;;24.22;72.34;99756.66;2027010;29;19919;-57
2022/06/05 01:34:00;;;;;;;;;;;;;;;24.19;72.29;99754.81;2029417;29;19945;-58
2022/06/05 01:35:24;;;;;;;;;;;;;;;24.18;72.10;99756.81;2033621;29;19978;-58
2022/06/05 01:36:34;;;;;;;;;;;;;;;24.18;72.61;99764.34;2016476;29;19957;-58
2022/06/05 01:37:39;;;;;;;;;;;;;;;24.17;72.54;99762.75;2031640;29;19915;-58
2022/06/05 01:38:55;;;;;;;;;;;;;;;24.16;72.55;99756.50;2026843;29;19920;-57
2022/06/05 01:39:58;;;;;;;;;;;;;;;24.15;72.59;99757.72;2027859;29;20412;-58
2022/06/05 01:41:01;;;;;;;;;;;;;;;24.13;72.34;99762.91;2030752;29;19918;-57
2022/06/05 01:42:08;;;;;;;;;;;;;;;24.13;72.50;99762.13;2025354;29;19919;-57
2022/06/05 01:43:13;;;;;;;;;;;;;;;24.13;72.35;99773.22;2025390;29;19933;-58
2022/06/05 01:44:27;;;;;;;;;;;;;;;24.13;72.60;99776.75;2028274;29;19919;-57
2022/06/05 01:45:33;;;;;;;;;;;;;;;24.13;72.43;99764.91;2029141;29;19915;-57
2022/06/05 01:46:35;;;;;;;;;;;;;;;24.14;72.60;99769.22;2029626;29;20644;-57
2022/06/05 01:47:39;;;;;;;;;;;;;;;24.14;72.56;99774.75;2029085;29;20117;-58
2022/06/05 01:48:42;;;;;;;;;;;;;;;24.13;72.34;99779.53;2024814;29;19975;-57
2022/06/05 01:49:46;;;;;;;;;;;;;;;24.13;71.89;99779.53;2027474;29;20172;-57
2022/06/05 01:50:48;;;;;;;;;;;;;;;24.11;72.11;99770.88;2030914;29;19922;-58
2022/06/05 01:51:52;;;;;;;;;;;;;;;24.12;72.07;99782.72;2027737;29;19990;-57
2022/06/05 01:52:52;;;;;;;;;;;;;;;24.10;72.09;99774.91;2030407;29;20217;-57
2022/06/05 01:53:55;;;;;;;15.67;8.50;;;;;;;24.12;72.28;99777.97;2029839;29;19982;-58
2022/06/05 01:55:07;;;;;;;;;;;;;;;24.12;72.18;99775.19;2021533;29;20071;-57
2022/06/05 01:56:13;;;;;;;;;;;;;;;24.12;72.16;99775.19;2016531;29;19918;-58
2022/06/05 01:57:15;;;;;;;;;;;;;;;24.13;72.22;99773.22;2028807;29;19934;-58
2022/06/05 01:58:17;;;;;;;;;;;;;;;24.13;72.30;99759.38;2022844;29;19914;-58
2022/06/05 01:59:41;;;;;;;;;;;;;;;24.12;72.43;99772.44;2017241;29;20054;-57
2022/06/05 02:00:41;;;;;;;;;;;;;;;24.13;72.25;99767.69;2013043;29;19911;-57
2022/06/05 02:01:44;;;;;;;;;;;;;;;24.12;72.27;99771.66;2028797;29;20357;-57
2022/06/05 02:02:48;;;;;;;;;;;;;;;24.13;72.31;99760.16;2028062;29;19914;-57
2022/06/05 02:03:51;;;;;;;;;;;;;;;24.14;72.04;99763.69;2021068;29;19915;-57
2022/06/05 02:04:56;;;;;;;;;;;;;;;24.11;71.83;99764.63;2020810;29;19954;-58
2022/06/05 02:06:08;;;;;;;;;;;;;;;24.11;72.07;99761.84;2027093;29;20228;-57
2022/06/05 02:07:22;;;;;;;;;;;;;;;24.08;72.04;99760.75;2023227;29;19958;-57
2022/06/05 02:08:34;;;;;;;;;;;;;;;24.07;72.13;99753.66;2019280;29;20031;-57
2022/06/05 02:09:39;;;;;;;;;;;;;;;24.07;72.28;99750.91;2030203;29;19965;-57
2022/06/05 02:10:47;;;;;;;;;;;;;;;24.08;72.31;99759.97;2028875;29;19907;-57
2022/06/05 02:11:52;;;;;;;;;;;;;;;24.07;72.05;99764.72;2020790;29;19919;-58
2022/06/05 02:12:53;;;;;;;;;;;;;;;24.07;72.13;99770.25;2020816;29;20324;-58
2022/06/05 02:13:56;;;;;;;;;;;;;;;24.08;72.26;99771.81;2032363;29;19921;-58
2022/06/05 02:14:56;;;;;;;;;;;;;;;24.09;72.17;99772.59;2027591;29;19914;-58
2022/06/05 02:15:56;;;;;;;;;;;;;;;24.09;72.02;99776.13;2033723;29;19970;-58
2022/06/05 02:16:58;;;;;;;;;;;;;;;24.09;72.12;99775.34;2026975;29;19938;-57
2022/06/05 02:18:00;;;;;;;;;;;;;;;24.10;72.16;99769.38;2022483;29;19911;-58
2022/06/05 02:19:01;;;;;;;;;;;;;;;24.10;72.12;99774.13;2032439;29;19965;-58
2022/06/05 02:20:03;;;;;;;;;;;;;;;24.10;71.99;99765.84;2028792;29;20635;-58
2022/06/05 02:21:04;;;;;;;;;;;;;;;24.10;72.18;99769.38;2031206;29;20344;-58
2022/06/05 02:22:12;;;;;;;;;;;;;;;24.10;71.99;99763.84;2032883;29;19921;-57
2022/06/05 02:23:15;;;;;;;;;;;;;;;24.10;72.17;99760.31;2028816;29;20325;-57
2022/06/05 02:24:15;;;;;;;;;;;;;;;24.09;71.91;99767.81;2023990;29;19918;-58
2022/06/05 02:25:18;;;;;;;;;;;;;;;24.09;72.04;99773.34;2031927;29;19963;-58
2022/06/05 02:26:18;;;;;;;;;;;;;;;24.09;72.04;99773.34;2030523;29;20247;-58
2022/06/05 02:27:23;;;;;;;;;;;;;;;24.10;72.18;99774.91;2035560;29;20617;-58
2022/06/05 02:28:23;;;;;;;;;;;;;;;24.10;71.96;99771.38;2030490;29;20052;-59
2022/06/05 02:29:25;;;;;;;;;;;;;;;24.10;71.98;99774.91;2032635;29;19914;-57
2022/06/05 02:30:36;;;;;;;;;;;;;;;24.10;72.12;99777.66;2035232;29;19961;-58
2022/06/05 02:31:37;;;;;;;;;;;;;;;24.10;72.17;99780.44;2033976;29;19949;-58
2022/06/05 02:32:46;;;;;;;;;;;;;;;24.10;71.80;99785.19;2028128;29;20232;-58
2022/06/05 02:33:49;;;;;;;;;;;;;;;24.10;72.08;99785.97;2030739;29;19915;-57
2022/06/05 02:35:15;;;;;;;;;;;;;;;24.10;72.26;99785.97;2029802;29;19906;-58
2022/06/05 02:36:21;;;;;;;;;;;;;;;24.09;72.16;99784.44;2033447;29;20376;-58
2022/06/05 02:37:24;;;;;;;;;;;;;;;24.09;72.12;99781.66;2027633;29;20452;-60
2022/06/05 02:38:24;;;;;;;;;;;;;;;24.08;72.25;99782.88;2040722;29;20056;-56
2022/06/05 02:39:25;;;;;;;;;;;;;;;24.08;72.14;99782.88;2031305;29;19914;-56
2022/06/05 02:40:32;;;;;;;;;;;;;;;24.08;72.37;99782.09;2027833;29;20273;-57
2022/06/05 02:41:41;;;;;;;;;;;;;;;24.07;72.17;99781.34;2036011;29;19968;-57
2022/06/05 02:42:51;;;;;;;;;;;;;;;24.06;72.30;99779.78;2031061;29;19938;-57
2022/06/05 02:45:17;;;;;;;;;;;;;;;24.07;72.16;99778.56;2029751;29;19950;-58
2022/06/05 02:46:30;;;;;;;;;;;;;;;24.07;72.25;99773.03;2031731;29;19939;-58
2022/06/05 02:47:33;;;;;;;;;;;;;;;24.08;72.29;99779.34;2030014;29;19973;-57
2022/06/05 02:48:36;;;;;;;;;;;;;;;24.06;72.23;99771.47;2036045;29;20697;-58
2022/06/05 02:49:39;;;;;;;;;;;;;;;24.07;72.17;99767.50;2033600;29;19919;-58
2022/06/05 02:51:18;;;;;;;;;;;;;;;24.08;72.30;99766.28;2030642;29;19915;-59
2022/06/05 02:52:21;;;;;;;;;;;;;;;24.07;72.38;99775.78;2003624;29;20011;-58
2022/06/05 02:53:21;;;;;;;;;;;;;;;24.07;72.29;99770.25;2000039;29;19918;-58
2022/06/05 02:54:24;;;;;;;;;;;;;;;24.06;72.23;99763.19;2009348;29;19938;-58
2022/06/05 02:55:24;;;;;;;;;;;;;;;24.06;72.50;99768.72;2005976;29;19968;-57
2022/06/05 02:56:26;;;;;;;;;;;;;;;24.06;72.32;99754.88;2010659;29;19916;-59
2022/06/05 02:57:27;;;;;;;;;;;;;;;24.06;72.08;99768.72;2007358;29;19923;-57
2022/06/05 02:58:27;;;;;;;;;;;;;;;24.06;72.22;99768.72;2027842;29;20009;-57
2022/06/05 02:59:27;;;;;;;;;;;;;;;24.05;72.41;99767.19;2030766;29;19922;-57
2022/06/05 03:00:31;;;;;;;9.80;7.30;;;;;;;24.06;72.20;99777.03;2028174;29;19977;-58
2022/06/05 03:04:10;;;;;;;;;;;;;;;24.06;72.21;99773.50;2027910;29;20308;-57
2022/06/05 03:05:10;;;;;;;;;;;;;;;24.04;72.54;99773.94;2030612;29;19918;-58
2022/06/05 03:06:10;;;;;;;9.80;7.45;;;;;;;24.05;72.08;99775.50;2029473;29;20329;-57
2022/06/05 03:07:11;;;;;;;;;;;;;;;24.04;72.35;99770.41;2031074;29;19921;-58
2022/06/05 03:08:13;;;;;;;;;;;;;;;24.04;72.24;99776.72;2028015;29;20301;-58
2022/06/05 03:09:13;;;;;;;;;;;;;;;24.03;72.15;99775.16;2032430;29;19942;-57
2022/06/05 03:10:13;;;;;;;;;;;;;;;24.03;72.15;99775.16;2034465;29;19922;-58
2022/06/05 03:11:14;;;;;;;;;;;;;;;24.03;72.07;99766.88;2033259;29;19939;-58
2022/06/05 03:12:14;;;;;;;;;;;;;;;24.02;72.03;99768.09;2030963;29;20270;-57
2022/06/05 03:13:15;;;;;;;;;;;;;;;24.02;72.13;99773.63;2032269;29;19921;-57
2022/06/05 03:14:15;;;;;;;;;;;;;;;24.02;72.20;99775.63;2031356;29;19920;-57
2022/06/05 03:15:15;;;;;;;;;;;;;;;24.01;72.14;99769.31;2036380;29;20295;-58
2022/06/05 03:16:16;;;;;;;;;;;;;;;24.02;71.99;99765.31;2029255;29;19915;-58
2022/06/05 03:17:16;;;;;;;;;;;;;;;24.03;72.13;99768.88;2027774;29;19915;-57
2022/06/05 03:18:17;;;;;;;;;;;;;;;24.02;72.34;99770.09;2029448;29;19907;-58
2022/06/05 03:19:17;;;;;;;7.67;5.70;;;;;;;24.02;71.93;99776.38;2029559;29;20261;-58
2022/06/05 03:20:17;;;;;;;;;;;;;;;24.02;72.09;99772.84;2027659;29;20643;-58
2022/06/05 03:21:18;;;;;;;;;;;;;;;24.02;72.01;99776.38;2028842;29;20017;-58
2022/06/05 03:22:18;;;;;;;;;;;;;;;24.01;72.03;99772.06;2028847;29;20325;-58
2022/06/05 03:23:19;;;;;;;;;;;;;;;24.00;71.93;99776.84;2029253;29;20406;-58
2022/06/05 03:24:19;;;;;;;;;;;;;;;24.00;71.94;99776.09;2029172;29;20539;-58
2022/06/05 03:25:23;;;;;;;12.10;6.57;;;;;;;24.00;71.81;99770.56;2024823;29;20124;-58
2022/06/05 03:26:23;;;;;;;;;;;;;;;23.99;72.00;99780.06;2021068;29;20640;-57
2022/06/05 03:27:23;;;;;;;10.03;6.17;;;;;;;23.98;71.89;99778.53;2028010;29;19973;-58
2022/06/05 03:28:25;;;;;;;6.00;5.30;;;;;;;23.98;71.56;99773.00;2029023;29;20271;-57
2022/06/05 03:29:25;;;;;;;;;;;;;;;23.98;71.45;99770.22;2021417;29;20036;-58
2022/06/05 03:30:25;;;;;;;;;;;;;;;23.98;71.83;99773.00;2019931;29;20285;-57
2022/06/05 03:31:26;;;;;;;;;;;;;;;23.96;71.72;99765.16;2022143;29;19915;-57
2022/06/05 03:32:26;;;;;;;;;;;;;;;23.97;71.60;99776.97;2030073;29;19922;-57
2022/06/05 03:33:27;;;;;;;;;;;;;;;23.98;71.56;99779.31;2030079;29;19907;-57
2022/06/05 03:34:27;;;;;;;;;;;;;;;23.96;71.73;99778.19;2030393;29;19907;-57
2022/06/05 03:35:28;;;;;;;;;;;;;;;23.96;71.71;99780.97;2029867;29;19997;-57
2022/06/05 03:36:28;;;;;;;;;;;;;;;23.96;71.57;99778.97;2028484;29;20353;-57
2022/06/05 03:37:29;;;;;;;;;;;;;;;23.97;71.51;99785.28;2021050;29;19915;-58
2022/06/05 03:38:29;;;;;;;;;;;;;;;23.96;71.69;99786.50;2024573;29;19922;-58
2022/06/05 03:39:30;;;;;;;;;;;;;;;23.95;71.70;99784.97;2020244;29;19982;-57
2022/06/05 03:40:32;;;;;;;;;;;;;;;23.96;71.41;99792.03;2028236;29;19938;-57
2022/06/05 03:41:32;;;;;;;;;;;;;;;23.93;71.40;99793.72;2030097;29;20343;-58
2022/06/05 03:42:32;;;;;;;;;;;;;;;23.92;71.30;99794.16;2028677;29;20359;-58
2022/06/05 03:43:33;;;;;;;;;;;;;;;23.96;71.40;99803.09;2030051;29;19918;-58
2022/06/05 03:44:36;;;;;;;;;;;;;;;23.92;71.53;99814.31;2030238;29;19914;-58
2022/06/05 03:45:37;;;;;;;;;;;;;;;23.92;71.19;99808.78;2026247;29;20365;-58
2022/06/05 03:46:40;;;;;;;;;;;;;;;23.91;71.20;99818.28;2029494;29;20185;-59
2022/06/05 03:47:40;;;;;;;;;;;;;;;23.91;71.29;99817.50;2030392;29;19922;-57
2022/06/05 03:48:41;;;;;;;;;;;;;;;23.90;71.23;99811.22;2034819;29;19914;-59
2022/06/05 03:49:41;;;;;;;;;;;;;;;23.90;71.26;99811.22;2031151;29;19914;-58
2022/06/05 03:50:42;;;;;;;;;;;;;;;23.91;71.18;99817.50;2030311;29;19922;-58
2022/06/05 03:51:44;;;;;;;;;;;;;;;23.91;71.10;99818.28;2029019;29;20294;-57
2022/06/05 03:52:44;;;;;;;;;;;;;;;23.90;71.10;99819.50;2030511;29;20598;-57
2022/06/05 03:53:45;;;;;;;;;;;;;;;23.88;71.21;99819.19;2032678;29;19910;-57
2022/06/05 03:54:46;;;;;;;;;;;;;;;23.87;70.46;99830.72;2028644;29;19934;-58
2022/06/05 03:55:46;;;;;;;;;;;;;;;23.83;70.41;99824.53;2030847;29;20292;-58
2022/06/05 03:56:46;;;;;;;;;;;;;;;23.83;70.36;99838.38;2028379;29;19915;-58
2022/06/05 03:57:47;;;;;;;;;;;;;;;23.83;70.39;99827.31;2030767;29;19907;-58
2022/06/05 03:58:48;;;;;;;;;;;;;;;23.81;69.79;99838.81;2026031;29;19961;-58
2022/06/05 03:59:49;;;;;;;;;;;;;;;23.80;69.85;99839.25;2030368;29;19926;-58
2022/06/05 04:00:51;;;;;;;;;;;;;;;23.79;70.10;99843.28;2032583;29;19906;-58
2022/06/05 04:01:51;;;;;;;;;;;;;;;23.80;70.31;99844.78;2028781;29;19907;-57
2022/06/05 04:02:53;;;;;;;;;;;;;;;23.77;70.40;99846.47;2031674;29;19962;-57
2022/06/05 04:03:53;;;;;;;;;;;;;;;23.78;70.40;99853.56;2029381;29;20047;-58
2022/06/05 04:04:53;;;;;;;;;;;;;;;23.78;70.13;99852.78;2033589;29;20302;-58
2022/06/05 04:05:53;;;;;;;;;;;;;;;23.77;70.13;99846.47;2030402;28;19917;-57
2022/06/05 04:06:54;;;;;;;;;;;;;;;23.75;69.79;99851.69;2029250;29;19998;-58
2022/06/05 04:07:55;;;;;;;;;;;;;;;23.76;69.99;99855.22;2029148;29;19961;-58
2022/06/05 04:08:56;;;;;;;;;;;;;;;23.73;69.75;99856.13;2028977;29;20253;-58
2022/06/05 04:09:57;;;;;;;;;;;;;;;23.69;69.78;99852.72;2028664;29;20009;-58
2022/06/05 04:10:57;;;;;;;;;;;;;;;23.68;69.91;99848.41;2033533;29;19918;-58
2022/06/05 04:11:57;;;;;;;;;;;;;;;23.70;69.92;99862.53;2020932;29;20113;-58
2022/06/05 04:12:57;;;;;;;;;;;;;;;23.68;70.25;99859.47;2022046;29;20308;-58
2022/06/05 04:13:58;;;;;;;;;;;;;;;23.69;69.95;99866.56;2032201;29;20280;-57
2022/06/05 04:15:00;;;;;;;;;;;;;;;23.69;69.64;99870.06;2030956;29;20991;-58
2022/06/05 04:16:00;;;;;;;;;;;;;;;23.68;69.94;99882.38;2032073;29;19914;-58
2022/06/05 04:17:00;;;;;;;;;;;;;;;23.67;69.49;99877.28;2029990;29;20057;-57
2022/06/05 04:18:01;;;;;;;;;;;;;;;23.65;69.35;99872.19;2029087;29;20425;-57
2022/06/05 04:19:02;;;;;;;;;;;;;;;23.64;69.49;99881.69;2029074;29;20017;-57
2022/06/05 04:20:04;;;;;;;;;;;;;;;23.61;69.21;99882.59;2028514;29;20136;-57
2022/06/05 04:21:05;;;;;;;;;;;;;;;23.62;69.30;99878.63;2032927;29;19918;-57
2022/06/05 04:22:05;;;;;;;;;;;;;;;23.63;69.07;99885.72;2032271;29;20269;-58
2022/06/05 04:23:08;;;;;;;;;;;;;;;23.62;69.21;99889.69;2028951;29;19910;-57
2022/06/05 04:24:11;;;;;;;;;;;;;;;23.64;69.53;99894.75;2025584;29;19915;-57
2022/06/05 04:25:13;;;;;;;;;;;;;;;23.64;69.21;99886.44;2023006;29;20250;-58
2022/06/05 04:26:15;;;;;;;;;;;;;;;23.59;69.00;99890.56;2037080;29;19914;-59
2022/06/05 04:27:16;;;;;;;;;;;;;;;23.60;69.11;99894.09;2034538;29;20005;-58
2022/06/05 04:28:16;;;;;;;;;;;;;;;23.59;68.87;99890.56;2021093;29;19919;-58
2022/06/05 04:29:16;;;;;;;;;;;;;;;23.57;68.70;99893.03;2031689;29;19969;-57
2022/06/05 04:30:17;;;;;;;;;;;;;;;23.56;68.94;99894.25;2028908;29;19923;-57
2022/06/05 04:31:25;;;;;;;;;;;;;;;23.53;68.74;99898.66;2034519;29;20192;-58
2022/06/05 04:32:26;;;;;;;;;;;;;;;23.53;68.87;99898.66;2026769;29;20361;-58
2022/06/05 04:33:26;;;;;;;;;;;;;;;23.53;68.90;99904.19;2033142;29;19911;-59
2022/06/05 04:34:27;;;;;;;;;;;;;;;23.54;69.12;99902.97;2031203;29;19915;-58
2022/06/05 04:35:27;;;;;;;;;;;;;;;23.53;69.08;99898.66;2031020;29;19950;-58
2022/06/05 04:36:28;;;;;;;;;;;;;;;23.54;69.10;99905.75;2032033;29;20259;-58
2022/06/05 04:37:29;;;;;;;;;;;;;;;23.56;68.96;99913.59;2029335;29;20151;-58
2022/06/05 04:38:29;;;;;;;;;;;;;;;23.55;68.76;99912.81;2028062;29;19957;-57
2022/06/05 04:39:30;;;;;;;;;;;;;;;23.52;68.05;99912.94;2030804;29;19913;-58
2022/06/05 04:40:30;;;;;;;;;;;;;;;23.50;68.24;99916.16;2030810;29;19906;-58
2022/06/05 04:41:31;;;;;;;;;;;;;;;23.49;68.38;99914.59;2028390;29;20009;-58
2022/06/05 04:42:31;;;;;;;;;;;;;;;23.52;68.57;99915.72;2025035;29;20308;-59
2022/06/05 04:43:32;;;;;;;;;;;;;;;23.51;68.79;99917.69;2023421;29;19907;-58
2022/06/05 04:44:32;;;;;;;;;;;;;;;23.53;68.83;99915.25;2035756;29;19950;-57
2022/06/05 04:45:32;;;;;;;;;;;;;;;23.53;68.71;99918.00;2029488;29;20188;-57
2022/06/05 04:46:34;;;;;;;;;;;;;;;23.53;68.54;99915.25;2036194;29;19930;-59
2022/06/05 04:47:34;;;;;;;;;;;;;;;23.53;68.44;99920.78;2032210;29;20715;-58
2022/06/05 04:48:34;;;;;;;;;;;;;;;23.51;68.16;99923.22;2034009;29;19925;-58
2022/06/05 04:49:35;;;;;;;;;;;;;;;23.52;68.22;99922.00;2027402;29;20252;-58
2022/06/05 04:50:36;;;;;;;;;;;;;;;23.52;68.30;99922.00;2023645;29;19914;-58
2022/06/05 04:51:36;;;;;;;;;;;;;;;23.51;68.32;99925.22;2036823;29;20479;-57
2022/06/05 04:52:37;;;;;;;;;;;;;;;23.49;68.18;99930.41;2034366;29;19993;-58
2022/06/05 04:53:37;;;;;;;;;;;;;;;23.50;67.84;99929.19;2020958;29;20655;-58
2022/06/05 04:54:37;;;;;;;;;;;;;;;23.49;68.24;99931.19;2020962;29;20201;-58
2022/06/05 04:55:38;;;;;;;;;;;;;;;23.47;68.29;99932.88;2032105;29;19954;-59
2022/06/05 04:56:38;;;;;;;;;;;;;;;23.48;68.20;99924.09;2027168;29;19935;-59
2022/06/05 04:57:38;;;;;;;;;;;;;;;23.46;68.12;99926.56;2028525;29;19919;-59
2022/06/05 04:58:39;;;;;;;;;;;;;;;23.47;67.96;99928.13;2031765;29;20488;-59
2022/06/05 04:59:39;;;;;;;;;;;;;;;23.47;68.19;99928.13;2035965;28;19925;-58
2022/06/05 05:00:39;;;;;;;;;;;;;;;23.47;68.35;99930.88;2028597;29;20286;-59
2022/06/05 05:01:40;;;;;;;3.20;1.90;;;;;;;23.47;68.45;99928.13;2028364;29;20298;-58
2022/06/05 05:02:41;;;;;;;;;;;;;;;23.48;68.57;99939.91;2030795;29;20665;-58
2022/06/05 05:03:41;;;;;;;;;;;;;;;23.47;68.64;99930.09;2030219;29;19914;-58
2022/06/05 05:04:41;;;;;;;;;;;;;;;23.48;68.41;99940.69;2033983;29;19922;-58
2022/06/05 05:05:42;;;;;;;;;;;;;;;23.46;67.63;99934.06;2027349;29;20241;-58
2022/06/05 05:06:43;;;;;;;;;;;;;;;23.44;67.94;99928.97;2028228;29;19919;-58
2022/06/05 05:07:44;;;;;;;;;;;;;;;23.45;68.08;99936.06;2023298;29;20352;-52
2022/06/05 05:08:44;;;;;;;;;;;;;;;23.44;68.21;99937.25;2014492;29;20160;-54
2022/06/05 05:09:44;;;;;;;;;;;;;;;23.47;68.03;99936.41;2018131;29;19907;-53
2022/06/05 05:10:45;;;;;;;;;;;;;;;23.45;68.29;99936.06;2030094;29;20247;-52
2022/06/05 05:11:45;;;;;;;;;;;;;;;23.45;68.36;99938.84;2033804;29;19934;-53
2022/06/05 05:12:46;;;;;;;;;;;;;;;23.46;68.42;99943.16;2027809;29;19978;-53
2022/06/05 05:13:46;;;;;;;;;;;;;;;23.45;68.63;99947.13;2028137;29;20001;-53
2022/06/05 05:14:47;;;;;;;;;;;;;;;23.47;68.57;99944.69;2028173;29;19949;-54
2022/06/05 05:15:48;;;;;;;;;;;;;;;23.47;68.71;99949.44;2028242;29;19921;-52
2022/06/05 05:16:49;;;;;;;;;;;;;;;23.44;68.85;99951.06;2025303;29;19913;-52
2022/06/05 05:17:49;;;;;;;;;;;;;;;23.45;68.62;99955.41;2035454;29;19985;-53
2022/06/05 05:18:50;;;;;;;;;;;;;;;23.46;68.68;99958.97;2029268;29;20485;-52
2022/06/05 05:19:50;;;;;;;;;;;;;;;23.46;68.81;99959.72;2028364;29;19942;-53
2022/06/05 05:20:51;;;;;;;;;;;;;;;23.47;68.69;99960.50;2033581;29;20349;-53
2022/06/05 05:21:51;;;;;;;;;;;;;;;23.46;68.77;99959.72;2030966;29;19914;-52
2022/06/05 05:22:52;;;;;;;;;;;;;;;23.47;68.24;99961.28;2033819;29;19915;-53
2022/06/05 05:23:53;;;;;;;;;;;;;;;23.46;68.52;99967.25;2023192;29;19922;-52
2022/06/05 05:24:53;;;;;;;;;;;;;;;23.46;68.52;99967.25;2028563;29;20580;-51
2022/06/05 05:25:53;;;;;;;;;;;;;;;23.48;68.21;99968.34;2027138;29;20102;-52
2022/06/05 05:26:53;;;;;;;;;;;;;;;23.44;68.33;99964.91;2027059;29;20315;-51
2022/06/05 05:27:54;;;;;;;;;;;;;;;23.44;67.99;99970.41;2026676;29;19919;-52
2022/06/05 05:28:55;;;;;;;;;;;;;;;23.45;68.13;99966.47;2020188;29;19926;-53
2022/06/05 05:29:56;;;;;;;;;;;;;;;23.44;68.01;99970.41;2019455;29;19923;-51
2022/06/05 05:30:56;;;;;;;;;;;;;;;23.44;68.04;99966.88;2019517;29;19927;-52